Time;durP1;ratioP1;P1;durP2;ratioP2;P2;SDS_P1;SDS_P2;PMS_P1;PMS_P2;Temp;Humidity;BMP_temperature;BMP_pressure;BME280_temperature;BME280_humidity;BME280_pressure;Samples;Min_cycle;Max_cycle;Signal;HPM_P1;HPM_P2
2022/04/12 00:02:17;;;;;;;8.07;5.28;;;;;;;;;;5021150;28;20124;-62
2022/04/12 00:04:44;;;;;;;10.38;5.80;;;;;;;;;;5049655;28;20079;-61
2022/04/12 00:07:11;;;;;;;10.45;5.50;;;;;;;;;;5078690;28;20044;-60
2022/04/12 00:09:37;;;;;;;10.90;6.35;;;;;;;;;;5069537;28;20078;-61
2022/04/12 00:12:08;;;;;;;9.55;5.72;;;;;;;;;;5034981;28;20401;-61
2022/04/12 00:14:35;;;;;;;9.50;6.28;;;;;;;;;;5053548;28;20032;-62
2022/04/12 00:19:57;;;;;;;7.43;5.32;;;;;;;;;;5056893;28;20521;-62
2022/04/12 00:22:24;;;;;;;9.35;5.82;;;;;;;;;;5046702;28;20079;-62
2022/04/12 00:24:51;;;;;;;10.98;6.80;;;;;;;;;;5069961;28;20043;-63
2022/04/12 00:27:18;;;;;;;9.15;5.90;;;;;;;;;;5031616;28;20052;-62
2022/04/12 00:29:48;;;;;;;7.60;5.35;;;;;;;;;;5037166;28;20046;-62
2022/04/12 00:32:15;;;;;;;9.70;6.38;;;;;;;;;;5049613;28;20500;-62
2022/04/12 00:34:42;;;;;;;10.35;5.75;;;;;;;;;;5070423;28;20046;-63
2022/04/12 00:37:09;;;;;;;8.48;5.60;;;;;;;;;;5070770;28;20051;-62
2022/04/12 00:39:38;;;;;;;11.98;6.25;;;;;;;;;;5042340;28;20525;-62
2022/04/12 00:42:11;;;;;;;7.93;6.18;;;;;;;;;;5055182;28;20147;-62
2022/04/12 00:44:39;;;;;;;11.60;6.28;;;;;;;;;;5064709;28;20393;-62
2022/04/12 00:47:06;;;;;;;12.40;6.28;;;;;;;;;;5025314;28;20059;-63
2022/04/12 00:49:33;;;;;;;10.07;6.40;;;;;;;;;;5038145;28;20067;-62
2022/04/12 00:52:00;;;;;;;8.48;5.40;;;;;;;;;;5022038;28;20527;-62
2022/04/12 00:54:27;;;;;;;10.18;6.45;;;;;;;;;;5042336;28;20040;-62
2022/04/12 00:56:54;;;;;;;9.27;5.72;;;;;;;;;;5062354;28;20536;-62
2022/04/12 00:59:30;;;;;;;9.27;5.28;;;;;;;;;;5029708;28;20051;-63
2022/04/12 01:02:02;;;;;;;9.13;5.30;;;;;;;;;;5050116;28;20683;-62
2022/04/12 01:04:29;;;;;;;8.65;6.15;;;;;;;;;;5031587;28;20090;-62
2022/04/12 01:06:59;;;;;;;8.95;5.50;;;;;;;;;;5063412;28;20033;-62
2022/04/12 01:09:28;;;;;;;8.68;5.50;;;;;;;;;;5092258;28;20278;-62
2022/04/12 01:11:56;;;;;;;11.32;6.47;;;;;;;;;;5023878;28;20044;-62
2022/04/12 01:14:25;;;;;;;10.35;5.70;;;;;;;;;;5042100;28;20102;-62
2022/04/12 01:16:55;;;;;;;9.38;6.38;;;;;;;;;;5060575;28;20238;-62
2022/04/12 01:19:43;;;;;;;8.10;6.15;;;;;;;;;;5074378;28;20119;-62
2022/04/12 01:22:16;;;;;;;12.05;5.95;;;;;;;;;;5034093;28;20642;-62
2022/04/12 01:24:43;;;;;;;10.70;5.40;;;;;;;;;;5021856;28;20051;-61
2022/04/12 01:27:10;;;;;;;7.72;5.32;;;;;;;;;;5034820;28;20490;-62
2022/04/12 01:29:42;;;;;;;9.20;5.55;;;;;;;;;;5037978;28;20368;-62
2022/04/12 01:32:10;;;;;;;7.20;5.00;;;;;;;;;;5034363;28;20036;-61
2022/04/12 01:34:39;;;;;;;8.02;5.78;;;;;;;;;;5040722;28;20271;-62
2022/04/12 01:37:09;;;;;;;12.23;6.47;;;;;;;;;;5055721;28;20058;-62
2022/04/12 01:39:48;;;;;;;6.05;5.13;;;;;;;;;;5049642;28;20044;-62
2022/04/12 01:42:15;;;;;;;7.72;5.95;;;;;;;;;;5051313;28;20127;-62
2022/04/12 01:44:42;;;;;;;8.30;6.45;;;;;;;;;;5035460;28;20036;-62
2022/04/12 01:47:09;;;;;;;10.35;6.57;;;;;;;;;;5035690;28;20573;-62
2022/04/12 01:49:39;;;;;;;9.38;6.47;;;;;;;;;;5029087;28;20040;-62
2022/04/12 01:52:06;;;;;;;13.07;6.88;;;;;;;;;;5086420;28;20044;-62
2022/04/12 01:54:34;;;;;;;7.95;6.20;;;;;;;;;;5074756;28;20044;-62
2022/04/12 01:57:13;;;;;;;12.07;6.80;;;;;;;;;;5039251;28;20031;-62
2022/04/12 01:59:43;;;;;;;8.00;5.68;;;;;;;;;;5019368;28;20036;-61
2022/04/12 02:02:19;;;;;;;10.95;7.25;;;;;;;;;;5022048;28;20053;-62
2022/04/12 02:04:49;;;;;;;10.50;6.15;;;;;;;;;;5053230;28;20040;-62
2022/04/12 02:07:16;;;;;;;10.13;7.38;;;;;;;;;;5035850;28;20056;-62
2022/04/12 02:09:43;;;;;;;12.15;7.57;;;;;;;;;;5051647;28;20048;-62
2022/04/12 02:12:19;;;;;;;12.68;6.90;;;;;;;;;;5056312;28;20060;-62
2022/04/12 02:14:46;;;;;;;8.13;6.07;;;;;;;;;;5043609;28;20491;-62
2022/04/12 02:17:12;;;;;;;10.50;6.93;;;;;;;;;;5035339;28;20044;-61
2022/04/12 02:19:46;;;;;;;9.52;6.47;;;;;;;;;;5066100;28;20108;-62
2022/04/12 02:22:13;;;;;;;11.07;6.07;;;;;;;;;;5023221;28;20105;-62
2022/04/12 02:24:41;;;;;;;9.02;6.97;;;;;;;;;;5042729;28;20064;-62
2022/04/12 02:27:09;;;;;;;10.07;7.00;;;;;;;;;;5012831;28;20094;-62
2022/04/12 02:29:38;;;;;;;13.63;7.53;;;;;;;;;;5050004;28;20067;-62
2022/04/12 02:32:08;;;;;;;10.00;6.90;;;;;;;;;;5036013;28;20090;-61
2022/04/12 02:34:44;;;;;;;11.48;7.10;;;;;;;;;;5028698;28;20494;-62
2022/04/12 02:37:14;;;;;;;9.43;6.97;;;;;;;;;;5046775;28;20036;-62
2022/04/12 02:39:48;;;;;;;9.50;7.03;;;;;;;;;;5022279;28;20048;-62
2022/04/12 02:42:17;;;;;;;13.00;7.53;;;;;;;;;;5061975;28;20044;-62
2022/04/12 02:44:44;;;;;;;11.25;7.28;;;;;;;;;;5012911;28;20094;-62
2022/04/12 02:47:24;;;;;;;10.15;7.15;;;;;;;;;;5020028;28;20056;-62
2022/04/12 02:49:56;;;;;;;12.85;7.57;;;;;;;;;;5037872;28;20120;-62
2022/04/12 02:52:26;;;;;;;12.77;6.88;;;;;;;;;;5070185;28;20121;-61
2022/04/12 02:54:56;;;;;;;;;;;;;;;;;;5035875;28;20048;-61
2022/04/12 02:57:22;;;;;;;9.98;6.68;;;;;;;;;;5068670;28;19923;-62
2022/04/12 02:59:48;;;;;;;12.13;7.18;;;;;;;;;;5060139;28;20514;-62
2022/04/12 03:02:15;;;;;;;13.20;8.07;;;;;;;;;;5068315;28;20032;-62
2022/04/12 03:04:41;;;;;;;12.38;8.35;;;;;;;;;;5056988;28;20045;-61
2022/04/12 03:07:20;;;;;;;12.50;7.97;;;;;;;;;;5035155;28;20044;-61
2022/04/12 03:09:50;;;;;;;10.80;7.20;;;;;;;;;;5060993;28;20059;-61
2022/04/12 03:12:16;;;;;;;14.50;8.38;;;;;;;;;;5064774;28;20044;-62
2022/04/12 03:14:45;;;;;;;14.60;8.88;;;;;;;;;;5039981;28;20461;-62
2022/04/12 03:17:12;;;;;;;9.32;6.95;;;;;;;;;;5051625;28;20393;-62
2022/04/12 03:19:39;;;;;;;11.13;7.28;;;;;;;;;;5014364;28;20045;-62
2022/04/12 03:22:09;;;;;;;10.45;7.43;;;;;;;;;;5027603;28;20291;-61
2022/04/12 03:24:36;;;;;;;11.20;7.75;;;;;;;;;;5018463;28;20086;-61
2022/04/12 03:27:09;;;;;;;13.45;8.35;;;;;;;;;;5032865;28;20471;-61
2022/04/12 03:29:36;;;;;;;14.25;8.57;;;;;;;;;;5022606;28;20040;-62
2022/04/12 03:32:05;;;;;;;15.43;7.85;;;;;;;;;;5048760;28;20577;-62
2022/04/12 03:34:41;;;;;;;12.80;8.32;;;;;;;;;;5065417;28;20040;-61
2022/04/12 03:37:11;;;;;;;11.90;8.38;;;;;;;;;;5067591;28;20127;-62
2022/04/12 03:39:38;;;;;;;9.85;7.50;;;;;;;;;;5051392;28;20068;-62
2022/04/12 03:42:11;;;;;;;12.70;7.78;;;;;;;;;;5017126;28;20060;-62
2022/04/12 03:44:44;;;;;;;17.23;7.70;;;;;;;;;;5032594;28;20515;-61
2022/04/12 03:47:14;;;;;;;9.55;8.00;;;;;;;;;;5024202;28;20067;-62
2022/04/12 03:49:45;;;;;;;14.70;8.35;;;;;;;;;;5029136;28;20072;-61
2022/04/12 03:52:15;;;;;;;11.88;8.07;;;;;;;;;;5027979;28;20560;-62
2022/04/12 03:54:41;;;;;;;12.00;8.38;;;;;;;;;;5066758;28;20040;-62
2022/04/12 03:57:09;;;;;;;12.70;7.82;;;;;;;;;;5032931;28;20435;-62
2022/04/12 03:59:39;;;;;;;11.50;8.13;;;;;;;;;;5058563;28;20059;-62
2022/04/12 04:02:12;;;;;;;9.85;7.88;;;;;;;;;;5033505;28;20121;-61
2022/04/12 04:04:46;;;;;;;12.60;7.82;;;;;;;;;;5067193;28;20040;-61
2022/04/12 04:07:13;;;;;;;12.65;9.07;;;;;;;;;;5056425;28;20048;-62
2022/04/12 04:09:45;;;;;;;13.45;7.85;;;;;;;;;;5055770;28;20490;-62
2022/04/12 04:12:18;;;;;;;14.32;9.55;;;;;;;;;;5033357;28;20128;-62
2022/04/12 04:14:47;;;;;;;13.63;8.77;;;;;;;;;;5029934;28;20070;-65
2022/04/12 04:17:14;;;;;;;11.95;9.05;;;;;;;;;;5042296;28;20044;-61
2022/04/12 04:19:42;;;;;;;12.95;8.77;;;;;;;;;;5060213;28;20550;-62
2022/04/12 04:22:09;;;;;;;16.13;9.68;;;;;;;;;;5029068;28;20041;-61
2022/04/12 04:24:39;;;;;;;13.32;8.65;;;;;;;;;;5035078;28;20124;-62
2022/04/12 04:27:09;;;;;;;15.82;9.90;;;;;;;;;;5051649;28;20061;-62
2022/04/12 04:29:36;;;;;;;13.95;9.07;;;;;;;;;;5041697;28;20080;-62
2022/04/12 04:32:04;;;;;;;14.70;9.25;;;;;;;;;;5019090;28;20141;-62
2022/04/12 04:34:30;;;;;;;15.70;8.63;;;;;;;;;;5060146;28;20048;-62
2022/04/12 04:37:03;;;;;;;13.18;8.38;;;;;;;;;;5063775;28;20029;-61
2022/04/12 04:39:33;;;;;;;11.65;8.70;;;;;;;;;;5026857;28;20520;-62
2022/04/12 04:42:05;;;;;;;14.85;9.35;;;;;;;;;;5075499;28;20059;-62
2022/04/12 04:44:33;;;;;;;14.82;9.93;;;;;;;;;;5061028;28;20488;-61
2022/04/12 04:46:59;;;;;;;11.75;8.68;;;;;;;;;;5069150;28;20111;-62
2022/04/12 04:49:30;;;;;;;12.05;8.55;;;;;;;;;;5031954;28;20071;-62
2022/04/12 04:51:56;;;;;;;16.52;9.13;;;;;;;;;;5087339;28;20056;-62
2022/04/12 04:54:23;;;;;;;13.65;8.73;;;;;;;;;;5088312;28;20032;-62
2022/04/12 04:56:51;;;;;;;12.13;8.13;;;;;;;;;;5032600;28;20044;-62
2022/04/12 04:59:18;;;;;;;16.02;9.52;;;;;;;;;;5051491;28;20033;-62
2022/04/12 05:01:45;;;;;;;12.82;9.10;;;;;;;;;;5033285;28;20041;-62
2022/04/12 05:04:31;;;;;;;13.07;9.35;;;;;;;;;;5049935;28;20105;-62
2022/04/12 05:07:03;;;;;;;13.02;9.02;;;;;;;;;;5067940;28;20097;-62
2022/04/12 05:09:30;;;;;;;10.07;7.93;;;;;;;;;;5049393;28;20110;-61
2022/04/12 05:11:56;;;;;;;11.65;8.48;;;;;;;;;;5080541;28;20094;-61
2022/04/12 05:14:26;;;;;;;11.77;8.93;;;;;;;;;;5069197;28;20134;-61
2022/04/12 05:16:53;;;;;;;13.15;9.65;;;;;;;;;;5069189;28;20062;-61
2022/04/12 05:19:19;;;;;;;16.52;9.98;;;;;;;;;;5053870;28;20101;-61
2022/04/12 05:21:46;;;;;;;15.20;9.55;;;;;;;;;;5047831;28;20119;-61
2022/04/12 05:24:13;;;;;;;14.65;9.38;;;;;;;;;;5034299;28;20048;-61
2022/04/12 05:26:40;;;;;;;12.35;8.55;;;;;;;;;;5060278;28;20436;-61
2022/04/12 05:29:10;;;;;;;12.18;8.27;;;;;;;;;;5073245;28;20523;-62
2022/04/12 05:31:43;;;;;;;12.65;8.85;;;;;;;;;;5020754;28;20056;-61
2022/04/12 05:34:10;;;;;;;13.73;8.98;;;;;;;;;;5053997;28;20036;-62
2022/04/12 05:36:43;;;;;;;13.55;9.02;;;;;;;;;;5023235;28;20085;-62
2022/04/12 05:39:14;;;;;;;12.43;8.25;;;;;;;;;;5025691;28;20044;-61
2022/04/12 05:41:41;;;;;;;12.73;8.73;;;;;;;;;;5027738;28;20060;-60
2022/04/12 05:44:08;;;;;;;16.02;9.60;;;;;;;;;;5071305;28;20118;-61
2022/04/12 05:46:35;;;;;;;11.95;8.30;;;;;;;;;;5072038;28;20066;-62
2022/04/12 05:49:01;;;;;;;13.23;9.85;;;;;;;;;;5090902;28;20044;-61
2022/04/12 05:51:33;;;;;;;15.30;9.25;;;;;;;;;;5053655;28;20043;-62
2022/04/12 05:54:09;;;;;;;13.65;8.90;;;;;;;;;;5041233;28;20048;-62
2022/04/12 05:56:36;;;;;;;12.77;7.95;;;;;;;;;;5037082;28;20044;-63
2022/04/12 05:59:07;;;;;;;17.25;9.73;;;;;;;;;;5010777;28;20043;-59
2022/04/12 06:01:34;;;;;;;15.55;10.05;;;;;;;;;;5054379;28;20086;-62
2022/04/12 06:04:10;;;;;;;14.13;8.80;;;;;;;;;;5043147;28;20047;-62
2022/04/12 06:06:40;;;;;;;11.57;8.55;;;;;;;;;;5047748;28;20079;-62
2022/04/12 06:09:10;;;;;;;18.80;10.13;;;;;;;;;;5034105;28;20062;-62
2022/04/12 06:11:37;;;;;;;17.08;9.10;;;;;;;;;;5017651;28;20371;-62
2022/04/12 06:14:04;;;;;;;16.10;8.63;;;;;;;;;;5032860;28;20113;-60
2022/04/12 06:16:31;;;;;;;13.40;9.48;;;;;;;;;;5031780;28;20118;-60
2022/04/12 06:18:58;;;;;;;15.88;10.07;;;;;;;;;;5034949;28;20497;-60
2022/04/12 06:21:26;;;;;;;14.43;9.30;;;;;;;;;;5061502;28;20099;-60
2022/04/12 06:23:53;;;;;;;13.23;9.57;;;;;;;;;;5018793;28;20410;-60
2022/04/12 06:26:19;;;;;;;13.20;8.90;;;;;;;;;;5080908;28;20131;-60
2022/04/12 06:28:46;;;;;;;13.77;9.13;;;;;;;;;;5062225;28;20035;-60
2022/04/12 06:31:12;;;;;;;14.27;9.18;;;;;;;;;;5065531;28;20044;-61
2022/04/12 06:33:39;;;;;;;11.15;8.15;;;;;;;;;;5032432;28;20036;-60
2022/04/12 06:36:06;;;;;;;16.65;9.35;;;;;;;;;;5083902;28;20079;-60
2022/04/12 06:38:35;;;;;;;13.55;9.10;;;;;;;;;;5067373;28;20456;-61
2022/04/12 06:41:01;;;;;;;13.32;8.65;;;;;;;;;;5057073;28;20049;-61
2022/04/12 06:43:28;;;;;;;14.30;9.65;;;;;;;;;;5056259;28;20526;-60
2022/04/12 06:45:55;;;;;;;13.80;10.35;;;;;;;;;;5063489;28;20035;-60
2022/04/12 06:48:21;;;;;;;12.48;8.82;;;;;;;;;;5030670;28;20078;-60
2022/04/12 06:50:47;;;;;;;11.60;8.93;;;;;;;;;;5043236;28;20072;-61
2022/04/12 06:53:15;;;;;;;13.20;8.75;;;;;;;;;;5038363;28;20066;-60
2022/04/12 06:55:42;;;;;;;11.45;8.93;;;;;;;;;;5020847;28;20040;-60
2022/04/12 06:58:08;;;;;;;14.80;9.98;;;;;;;;;;5037119;28;20044;-61
2022/04/12 07:00:36;;;;;;;13.30;8.55;;;;;;;;;;5029105;28;20086;-60
2022/04/12 07:03:02;;;;;;;12.95;8.90;;;;;;;;;;5060850;28;20040;-60
2022/04/12 07:05:29;;;;;;;12.20;8.27;;;;;;;;;;5062354;28;20033;-61
2022/04/12 07:07:57;;;;;;;13.55;9.10;;;;;;;;;;5064481;28;20047;-61
2022/04/12 07:10:24;;;;;;;13.77;9.73;;;;;;;;;;5029212;28;20048;-60
2022/04/12 07:12:53;;;;;;;16.60;9.68;;;;;;;;;;5063199;28;20044;-60
2022/04/12 07:15:23;;;;;;;13.45;9.60;;;;;;;;;;5056798;28;20062;-61
2022/04/12 07:17:53;;;;;;;13.30;9.00;;;;;;;;;;5028309;28;20084;-62
2022/04/12 07:20:20;;;;;;;12.93;8.57;;;;;;;;;;5064748;28;20082;-61
2022/04/12 07:22:46;;;;;;;11.90;9.30;;;;;;;;;;5035301;28;20037;-64
2022/04/12 07:25:13;;;;;;;14.60;9.55;;;;;;;;;;5060504;28;20037;-62
2022/04/12 07:27:40;;;;;;;17.35;10.02;;;;;;;;;;5058567;28;20095;-61
2022/04/12 07:30:10;;;;;;;12.60;9.82;;;;;;;;;;5026579;28;20044;-62
2022/04/12 07:32:36;;;;;;;13.35;9.02;;;;;;;;;;5061973;28;20461;-61
2022/04/12 07:35:02;;;;;;;13.23;9.15;;;;;;;;;;5064734;28;20071;-62
2022/04/12 07:37:29;;;;;;;14.23;9.93;;;;;;;;;;5060825;28;20043;-60
2022/04/12 07:39:58;;;;;;;11.55;8.80;;;;;;;;;;5044971;28;20640;-60
2022/04/12 07:42:24;;;;;;;12.07;8.88;;;;;;;;;;5079289;28;20114;-61
2022/04/12 07:44:51;;;;;;;12.05;9.00;;;;;;;;;;5062569;28;20120;-60
2022/04/12 07:47:18;;;;;;;11.88;8.68;;;;;;;;;;5072170;28;20558;-60
2022/04/12 07:49:45;;;;;;;11.85;9.23;;;;;;;;;;5049752;28;20048;-60
2022/04/12 07:52:12;;;;;;;15.18;9.48;;;;;;;;;;5031075;28;20048;-60
2022/04/12 07:54:39;;;;;;;14.95;9.98;;;;;;;;;;5047300;28;20040;-60
2022/04/12 07:57:06;;;;;;;11.75;9.70;;;;;;;;;;5063232;28;20892;-60
2022/04/12 07:59:33;;;;;;;15.18;10.73;;;;;;;;;;5030684;28;20035;-61
2022/04/12 08:02:00;;;;;;;12.52;8.73;;;;;;;;;;5026000;28;20044;-60
2022/04/12 08:04:26;;;;;;;11.98;8.07;;;;;;;;;;5062835;28;20079;-60
2022/04/12 08:06:54;;;;;;;15.00;8.80;;;;;;;;;;5040580;28;20411;-60
2022/04/12 08:09:23;;;;;;;13.60;8.57;;;;;;;;;;5061601;28;20055;-61
2022/04/12 08:11:50;;;;;;;14.45;9.43;;;;;;;;;;5024161;28;20096;-62
2022/04/12 08:14:17;;;;;;;13.52;8.88;;;;;;;;;;5042842;28;20059;-60
2022/04/12 08:16:44;;;;;;;13.90;8.82;;;;;;;;;;5038429;28;20064;-60
2022/04/12 08:19:10;;;;;;;10.63;8.55;;;;;;;;;;5054959;28;20052;-62
2022/04/12 08:21:38;;;;;;;11.70;8.23;;;;;;;;;;5038296;28;20087;-62
2022/04/12 08:24:06;;;;;;;14.32;9.55;;;;;;;;;;5027344;28;20152;-62
2022/04/12 08:26:36;;;;;;;11.32;8.55;;;;;;;;;;4995058;28;20052;-62
2022/04/12 08:29:08;;;;;;;14.85;9.13;;;;;;;;;;5059565;28;20047;-62
2022/04/12 08:31:47;;;;;;;14.75;8.18;;;;;;;;;;4994181;28;20131;-62
2022/04/12 08:34:20;;;;;;;13.27;8.75;;;;;;;;;;5002429;28;20099;-62
2022/04/12 08:36:46;;;;;;;;;;;;;;;;;;5040289;28;20160;-60
2022/04/12 08:39:13;;;;;;;11.43;8.63;;;;;;;;;;5061451;28;19925;-60
2022/04/12 08:41:41;;;;;;;12.30;8.70;;;;;;;;;;5021388;28;20048;-60
2022/04/12 08:44:07;;;;;;;12.90;8.23;;;;;;;;;;5065925;28;20545;-61
2022/04/12 08:46:38;;;;;;;10.68;7.80;;;;;;;;;;5059915;28;20036;-60
2022/04/12 08:49:05;;;;;;;12.90;9.25;;;;;;;;;;5045012;28;20037;-60
2022/04/12 08:51:32;;;;;;;13.73;8.90;;;;;;;;;;5066027;28;20132;-60
2022/04/12 08:53:59;;;;;;;13.35;8.55;;;;;;;;;;5025635;28;20059;-60
2022/04/12 08:56:26;;;;;;;11.30;8.30;;;;;;;;;;5080058;28;20051;-60
2022/04/12 08:58:55;;;;;;;16.88;8.95;;;;;;;;;;5068084;28;20125;-60
2022/04/12 09:01:24;;;;;;;10.93;7.82;;;;;;;;;;5086057;28;20627;-61
2022/04/12 09:03:50;;;;;;;12.40;7.80;;;;;;;;;;5034956;28;20559;-61
2022/04/12 09:06:17;;;;;;;12.07;7.38;;;;;;;;;;5087662;28;20424;-61
2022/04/12 09:08:46;;;;;;;15.88;8.52;;;;;;;;;;5087544;28;20051;-61
2022/04/12 09:11:14;;;;;;;11.50;7.65;;;;;;;;;;5050712;28;20046;-61
2022/04/12 09:13:57;;;;;;;11.02;8.07;;;;;;;;;;5059473;28;20044;-62
2022/04/12 09:16:24;;;;;;;;;;;;;;;;;;5084906;28;20359;-61
2022/04/12 09:18:50;;;;;;;11.57;7.55;;;;;;;;;;5068292;28;19927;-61
2022/04/12 09:21:21;;;;;;;11.77;8.57;;;;;;;;;;5066150;28;20435;-60
2022/04/12 09:23:48;;;;;;;11.75;9.10;;;;;;;;;;5079157;28;20699;-61
2022/04/12 09:26:16;;;;;;;9.85;7.68;;;;;;;;;;5065850;28;20169;-61
2022/04/12 09:28:43;;;;;;;11.77;8.68;;;;;;;;;;5068062;28;20540;-61
2022/04/12 09:31:14;;;;;;;12.52;8.43;;;;;;;;;;5045644;28;20159;-60
2022/04/12 09:33:41;;;;;;;12.23;7.65;;;;;;;;;;5083290;28;20856;-60
2022/04/12 09:36:08;;;;;;;10.93;7.90;;;;;;;;;;5026920;28;20137;-60
2022/04/12 09:38:36;;;;;;;10.05;8.20;;;;;;;;;;5050553;28;20312;-60
2022/04/12 09:41:16;;;;;;;12.00;8.52;;;;;;;;;;5051835;28;20059;-60
2022/04/12 09:43:54;;;;;;;12.43;8.15;;;;;;;;;;5084084;28;20116;-60
2022/04/12 09:46:21;;;;;;;10.45;8.00;;;;;;;;;;5067142;28;20034;-60
2022/04/12 09:48:48;;;;;;;13.48;8.75;;;;;;;;;;5084392;28;20050;-60
2022/04/12 09:51:15;;;;;;;12.00;9.30;;;;;;;;;;5086169;28;20040;-60
2022/04/12 09:53:45;;;;;;;11.27;8.43;;;;;;;;;;5031676;28;20064;-61
2022/04/12 09:56:22;;;;;;;11.02;7.85;;;;;;;;;;5068019;28;20062;-60
2022/04/12 09:58:55;;;;;;;12.23;8.15;;;;;;;;;;5084097;28;20489;-61
2022/04/12 10:01:23;;;;;;;11.15;7.88;;;;;;;;;;5082301;28;20584;-61
2022/04/12 10:03:53;;;;;;;14.13;8.45;;;;;;;;;;5067275;28;20113;-60
2022/04/12 10:06:21;;;;;;;12.38;8.15;;;;;;;;;;5084830;28;20108;-61
2022/04/12 10:08:55;;;;;;;11.50;8.27;;;;;;;;;;5031796;28;20048;-61
2022/04/12 10:11:22;;;;;;;11.43;8.38;;;;;;;;;;5033824;28;20040;-61
2022/04/12 10:13:49;;;;;;;13.98;7.72;;;;;;;;;;5067896;28;20043;-61
2022/04/12 10:16:17;;;;;;;12.02;7.90;;;;;;;;;;5067251;28;20075;-60
2022/04/12 10:18:44;;;;;;;10.30;7.70;;;;;;;;;;5065974;28;20044;-60
2022/04/12 10:21:14;;;;;;;10.13;8.05;;;;;;;;;;5062461;28;20128;-60
2022/04/12 10:23:41;;;;;;;10.55;7.82;;;;;;;;;;5051717;28;20304;-61
2022/04/12 10:26:08;;;;;;;17.80;9.00;;;;;;;;;;5065457;28;20040;-60
2022/04/12 10:28:35;;;;;;;10.93;7.53;;;;;;;;;;5064674;28;20130;-60
2022/04/12 10:31:22;;;;;;;10.60;8.18;;;;;;;;;;5047274;28;20036;-61
2022/04/12 10:34:15;;;;;;;10.25;7.70;;;;;;;;;;5066465;28;20040;-60
2022/04/12 10:36:56;;;;;;;12.80;8.73;;;;;;;;;;5081843;28;20418;-60
2022/04/12 10:39:26;;;;;;;12.02;7.35;;;;;;;;;;5065097;28;20055;-61
2022/04/12 10:41:55;;;;;;;11.38;8.65;;;;;;;;;;5049282;28;20100;-61
2022/04/12 10:44:22;;;;;;;9.50;7.40;;;;;;;;;;5046995;28;20051;-61
2022/04/12 10:46:50;;;;;;;12.13;7.47;;;;;;;;;;5067977;28;20055;-61
2022/04/12 10:49:20;;;;;;;14.27;8.20;;;;;;;;;;5082038;28;20134;-61
2022/04/12 10:52:00;;;;;;;12.98;6.97;;;;;;;;;;5051119;28;20054;-60
2022/04/12 10:54:31;;;;;;;12.57;7.97;;;;;;;;;;5064051;28;20138;-61
2022/04/12 10:57:29;;;;;;;14.20;8.77;;;;;;;;;;5083189;28;20063;-61
2022/04/12 11:00:10;;;;;;;10.43;7.55;;;;;;;;;;4999268;28;20064;-61
2022/04/12 11:02:39;;;;;;;11.23;7.30;;;;;;;;;;5046737;28;20031;-61
2022/04/12 11:05:42;;;;;;;12.32;8.07;;;;;;;;;;5030085;28;20043;-61
2022/04/12 11:08:14;;;;;;;10.43;8.00;;;;;;;;;;5031731;28;20754;-61
2022/04/12 11:10:42;;;;;;;11.90;7.18;;;;;;;;;;5030686;28;20051;-61
2022/04/12 11:13:16;;;;;;;9.52;6.90;;;;;;;;;;5027711;28;20528;-60
2022/04/12 11:15:57;;;;;;;12.32;7.88;;;;;;;;;;5045141;28;20052;-61
2022/04/12 11:18:24;;;;;;;14.07;8.23;;;;;;;;;;5079615;28;20100;-60
2022/04/12 11:21:03;;;;;;;9.27;6.85;;;;;;;;;;5048860;28;20047;-60
2022/04/12 11:23:49;;;;;;;14.23;8.25;;;;;;;;;;5016829;28;20532;-61
2022/04/12 11:26:35;;;;;;;12.50;7.78;;;;;;;;;;5064775;28;20112;-60
2022/04/12 11:29:02;;;;;;;10.70;8.23;;;;;;;;;;5084277;28;20066;-61
2022/04/12 11:31:32;;;;;;;14.52;8.60;;;;;;;;;;5029743;28;20040;-61
2022/04/12 11:34:01;;;;;;;11.75;7.50;;;;;;;;;;5047663;28;20048;-61
2022/04/12 11:36:29;;;;;;;38.45;10.02;;;;;;;;;;5030685;28;20279;-61
2022/04/12 11:38:59;;;;;;;11.73;7.43;;;;;;;;;;5031586;28;20044;-61
2022/04/12 11:41:32;;;;;;;11.40;7.78;;;;;;;;;;5028866;28;20522;-60
2022/04/12 11:44:05;;;;;;;11.75;7.57;;;;;;;;;;5061581;28;20041;-61
2022/04/12 11:46:32;;;;;;;13.27;8.23;;;;;;;;;;5061642;28;20028;-60
2022/04/12 11:49:16;;;;;;;11.55;7.80;;;;;;;;;;5028910;28;20132;-60
2022/04/12 11:51:44;;;;;;;9.30;6.70;;;;;;;;;;5026496;28;20094;-62
2022/04/12 11:54:24;;;;;;;10.93;7.75;;;;;;;;;;5016463;28;20041;-63
2022/04/12 11:57:01;;;;;;;12.48;6.95;;;;;;;;;;5046178;28;20052;-60
2022/04/12 11:59:30;;;;;;;10.98;8.07;;;;;;;;;;5043396;28;20494;-62
2022/04/12 12:02:02;;;;;;;15.30;8.02;;;;;;;;;;5005326;28;20461;-62
2022/04/12 12:04:38;;;;;;;10.13;7.53;;;;;;;;;;5035396;28;20071;-62
2022/04/12 12:07:06;;;;;;;12.35;7.88;;;;;;;;;;5062814;28;20732;-61
2022/04/12 12:09:43;;;;;;;9.80;6.93;;;;;;;;;;5059169;28;20228;-60
2022/04/12 12:12:10;;;;;;;12.15;6.47;;;;;;;;;;5044392;28;20384;-62
2022/04/12 12:14:37;;;;;;;11.05;6.82;;;;;;;;;;5058107;28;20151;-62
2022/04/12 12:17:18;;;;;;;12.82;7.00;;;;;;;;;;5018706;28;20102;-62
2022/04/12 12:19:46;;;;;;;11.43;6.38;;;;;;;;;;5044577;28;20040;-62
2022/04/12 12:22:16;;;;;;;14.07;7.20;;;;;;;;;;5063650;28;20505;-62
2022/04/12 12:24:50;;;;;;;11.40;7.05;;;;;;;;;;5057551;28;20044;-61
2022/04/12 12:27:26;;;;;;;10.57;7.43;;;;;;;;;;5060802;28;20572;-61
2022/04/12 12:29:53;;;;;;;9.48;6.57;;;;;;;;;;5063843;28;20055;-62
2022/04/12 12:32:20;;;;;;;11.50;6.97;;;;;;;;;;5031721;28;20044;-60
2022/04/12 12:34:47;;;;;;;10.35;7.25;;;;;;;;;;5025402;28;20119;-61
2022/04/12 12:37:16;;;;;;;11.23;6.57;;;;;;;;;;5062184;28;20055;-62
2022/04/12 12:39:45;;;;;;;12.55;6.47;;;;;;;;;;5065811;28;20111;-62
2022/04/12 12:42:13;;;;;;;10.70;7.45;;;;;;;;;;5011684;28;20049;-62
2022/04/12 12:44:40;;;;;;;8.95;6.82;;;;;;;;;;5062421;28;20044;-62
2022/04/12 12:47:10;;;;;;;7.95;6.30;;;;;;;;;;5023910;28;20457;-62
2022/04/12 12:49:37;;;;;;;10.32;6.75;;;;;;;;;;5064500;28;20045;-62
2022/04/12 12:52:08;;;;;;;11.25;7.35;;;;;;;;;;5047472;28;20441;-62
2022/04/12 12:54:35;;;;;;;10.75;6.82;;;;;;;;;;5030336;28;20041;-61
2022/04/12 12:57:03;;;;;;;10.60;7.15;;;;;;;;;;5061744;28;20075;-60
2022/04/12 12:59:34;;;;;;;9.45;6.88;;;;;;;;;;5029343;28;20774;-62
2022/04/12 13:02:14;;;;;;;9.25;6.28;;;;;;;;;;5056620;28;20396;-62
2022/04/12 13:04:59;;;;;;;10.07;6.85;;;;;;;;;;5025906;28;20056;-61
2022/04/12 13:07:31;;;;;;;10.55;6.38;;;;;;;;;;5030404;28;20045;-60
2022/04/12 13:10:05;;;;;;;9.50;7.00;;;;;;;;;;5050761;28;20245;-62
2022/04/12 13:12:38;;;;;;;14.15;7.45;;;;;;;;;;5064350;28;20036;-62
2022/04/12 13:15:09;;;;;;;12.88;8.57;;;;;;;;;;5017643;28;20554;-61
2022/04/12 13:17:40;;;;;;;17.27;9.85;;;;;;;;;;5026477;28;20467;-61
2022/04/12 13:20:30;;;;;;;16.50;10.15;;;;;;;;;;5044770;28;20075;-62
2022/04/12 13:23:02;;;;;;;15.07;8.75;;;;;;;;;;5046909;28;20061;-62
2022/04/12 13:25:30;;;;;;;;;;;;;;;;;;5017471;28;20033;-62
2022/04/12 13:27:57;;;;;;;11.43;8.80;;;;;;;;;;5035512;28;19920;-62
2022/04/12 13:30:27;;;;;;;12.95;8.25;;;;;;;;;;5046336;28;20040;-62
2022/04/12 13:32:57;;;;;;;11.98;7.05;;;;;;;;;;5045302;28;20045;-62
2022/04/12 13:35:26;;;;;;;;;;;;;;;;;;5070918;28;20074;-62
2022/04/12 13:38:04;;;;;;;13.63;8.20;;;;;;;;;;5038106;28;19966;-62
2022/04/12 13:40:36;;;;;;;12.85;7.78;;;;;;;;;;5043442;28;20414;-62
2022/04/12 13:43:06;;;;;;;10.75;7.53;;;;;;;;;;5058602;28;20065;-62
2022/04/12 13:45:33;;;;;;;11.85;8.02;;;;;;;;;;5059328;28;20037;-61
2022/04/12 13:48:00;;;;;;;12.65;7.97;;;;;;;;;;5013479;28;20505;-62
2022/04/12 13:50:27;;;;;;;12.88;8.10;;;;;;;;;;5019654;28;20279;-60
2022/04/12 13:52:54;;;;;;;12.82;9.02;;;;;;;;;;5052814;28;20599;-60
2022/04/12 13:55:21;;;;;;;15.70;8.38;;;;;;;;;;5024716;28;20815;-60
2022/04/12 13:57:49;;;;;;;11.80;8.98;;;;;;;;;;5064333;28;20051;-60
2022/04/12 14:00:19;;;;;;;13.30;7.93;;;;;;;;;;5038521;28;20079;-60
2022/04/12 14:02:46;;;;;;;12.93;8.73;;;;;;;;;;5008439;28;20552;-63
2022/04/12 14:05:13;;;;;;;13.85;8.77;;;;;;;;;;5063345;28;20039;-61
2022/04/12 14:07:42;;;;;;;13.80;8.30;;;;;;;;;;5045980;28;20035;-61
2022/04/12 14:10:10;;;;;;;11.10;8.93;;;;;;;;;;5028824;28;20044;-62
2022/04/12 14:12:36;;;;;;;11.93;8.10;;;;;;;;;;5047492;28;20116;-61
2022/04/12 14:15:04;;;;;;;13.80;9.25;;;;;;;;;;5013748;28;20041;-60
2022/04/12 14:17:31;;;;;;;12.93;9.20;;;;;;;;;;5044979;28;20075;-60
2022/04/12 14:20:00;;;;;;;18.92;10.23;;;;;;;;;;5063037;28;20044;-61
2022/04/12 14:22:28;;;;;;;16.38;8.88;;;;;;;;;;5023766;28;20372;-62
2022/04/12 14:24:55;;;;;;;13.43;9.27;;;;;;;;;;5041728;28;20040;-62
2022/04/12 14:27:24;;;;;;;12.27;8.02;;;;;;;;;;5028301;28;20456;-61
2022/04/12 14:29:53;;;;;;;12.60;8.10;;;;;;;;;;5064256;28;20090;-61
2022/04/12 14:32:19;;;;;;;12.80;9.18;;;;;;;;;;5065642;28;20131;-61
2022/04/12 14:34:46;;;;;;;14.13;8.13;;;;;;;;;;5058325;28;20093;-61
2022/04/12 14:37:13;;;;;;;15.18;8.48;;;;;;;;;;5063621;28;20056;-61
2022/04/12 14:39:45;;;;;;;14.13;8.90;;;;;;;;;;5046976;28;20040;-61
2022/04/12 14:42:12;;;;;;;12.07;8.32;;;;;;;;;;5073935;28;20076;-61
2022/04/12 14:44:39;;;;;;;12.43;8.32;;;;;;;;;;5066544;28;20112;-61
2022/04/12 14:47:05;;;;;;;12.60;8.25;;;;;;;;;;5051165;28;20237;-61
2022/04/12 14:49:33;;;;;;;12.68;7.60;;;;;;;;;;5051859;28;20086;-61
2022/04/12 14:52:00;;;;;;;13.23;7.88;;;;;;;;;;5032072;28;20097;-61